createdAt,value
2022-09-22T00:01:32.604Z,52.42
2022-09-22T00:04:03.643Z,52.16
2022-09-22T00:06:40.671Z,52.46
2022-09-22T00:09:11.915Z,52.77
2022-09-22T00:11:45.861Z,53.54
2022-09-22T00:14:16.633Z,53.00
2022-09-22T00:16:53.986Z,52.95
2022-09-22T00:19:26.745Z,53.10
2022-09-22T00:21:56.911Z,52.71
2022-09-22T00:24:24.430Z,53.01
2022-09-22T00:26:57.283Z,53.74
2022-09-22T00:29:27.347Z,53.90
2022-09-22T00:31:54.883Z,54.12
2022-09-22T00:34:26.877Z,54.47
2022-09-22T00:36:54.025Z,54.06
2022-09-22T00:39:20.960Z,54.29
2022-09-22T00:41:50.955Z,54.17
2022-09-22T00:44:30.668Z,54.85
2022-09-22T00:47:17.527Z,54.22
2022-09-22T00:49:57.397Z,54.44
2022-09-22T00:52:28.923Z,54.38
2022-09-22T00:55:00.838Z,53.84
2022-09-22T00:57:35.057Z,54.46
2022-09-22T01:00:04.826Z,54.48
2022-09-22T01:02:32.198Z,54.10
2022-09-22T01:04:59.468Z,54.31
2022-09-22T01:07:32.604Z,54.19
2022-09-22T01:10:00.571Z,53.96
2022-09-22T01:12:32.562Z,54.08
2022-09-22T01:15:18.990Z,53.95
2022-09-22T01:18:19.133Z,54.07
2022-09-22T01:20:49.211Z,54.37
2022-09-22T01:23:48.944Z,54.04
2022-09-22T01:26:42.538Z,54.07
2022-09-22T01:29:28.180Z,54.41
2022-09-22T01:32:06.645Z,54.02
2022-09-22T01:35:17.186Z,53.66
2022-09-22T01:38:08.122Z,53.62
2022-09-22T01:40:42.686Z,53.91
2022-09-22T01:43:15.645Z,54.13
2022-09-22T01:45:46.665Z,54.33
2022-09-22T01:48:28.012Z,53.97
2022-09-22T01:51:06.992Z,54.04
2022-09-22T01:53:42.595Z,54.56
2022-09-22T01:56:13.900Z,54.08
2022-09-22T01:58:48.564Z,54.26
2022-09-22T02:01:19.610Z,54.01
2022-09-22T02:04:09.464Z,54.20
2022-09-22T02:06:43.273Z,54.81
2022-09-22T02:09:15.512Z,54.82
2022-09-22T02:11:42.884Z,55.25
2022-09-22T02:14:11.929Z,55.17
2022-09-22T02:16:38.774Z,55.07
2022-09-22T02:19:19.550Z,55.25
2022-09-22T02:21:47.937Z,55.21
2022-09-22T02:24:34.466Z,54.88
2022-09-22T02:27:36.573Z,55.39
2022-09-22T02:30:09.485Z,55.44
2022-09-22T02:32:41.166Z,55.17
2022-09-22T02:35:09.898Z,55.23
2022-09-22T02:38:15.869Z,55.24
2022-09-22T02:41:01.373Z,55.79
2022-09-22T02:43:40.883Z,55.82
2022-09-22T02:46:27.545Z,56.04
2022-09-22T02:49:02.390Z,55.87
2022-09-22T02:51:33.111Z,56.28
2022-09-22T02:54:02.066Z,56.28
2022-09-22T02:56:29.051Z,56.16
2022-09-22T02:58:58.425Z,56.39
2022-09-22T03:01:28.319Z,55.98
2022-09-22T03:03:55.263Z,55.69
2022-09-22T03:06:22.033Z,55.66
2022-09-22T03:08:54.504Z,56.03
2022-09-22T03:11:21.245Z,56.06
2022-09-22T03:13:47.956Z,55.66
2022-09-22T03:16:14.856Z,55.76
2022-09-22T03:18:44.521Z,55.39
2022-09-22T03:21:17.197Z,55.75
2022-09-22T03:23:43.935Z,55.73
2022-09-22T03:26:10.607Z,55.85
2022-09-22T03:28:37.273Z,55.61
2022-09-22T03:31:06.859Z,55.74
2022-09-22T03:33:33.573Z,55.92
2022-09-22T03:36:04.407Z,55.60
2022-09-22T03:38:31.928Z,55.50
2022-09-22T03:41:01.307Z,55.82
2022-09-22T03:43:28.111Z,55.59
2022-09-22T03:45:59.269Z,55.77
2022-09-22T03:48:28.750Z,55.93
2022-09-22T03:50:56.416Z,55.84
2022-09-22T03:53:24.945Z,56.01
2022-09-22T03:55:52.113Z,55.83
2022-09-22T03:58:21.701Z,55.81
2022-09-22T04:00:49.856Z,55.56
2022-09-22T04:03:19.405Z,55.37
2022-09-22T04:05:54.355Z,55.77
2022-09-22T04:08:24.288Z,55.50
2022-09-22T04:10:54.060Z,55.38
2022-09-22T04:13:22.529Z,55.91
2022-09-22T04:15:51.985Z,56.20
2022-09-22T04:18:18.681Z,56.08
2022-09-22T04:20:46.275Z,55.71
2022-09-22T04:23:16.050Z,55.65
2022-09-22T04:25:45.476Z,55.71
2022-09-22T04:28:12.190Z,55.76
2022-09-22T04:30:39.665Z,56.09
2022-09-22T04:33:08.298Z,56.68
2022-09-22T04:35:35.484Z,56.40
2022-09-22T04:38:02.178Z,56.47
2022-09-22T04:40:30.443Z,56.26
2022-09-22T04:42:57.842Z,56.12
2022-09-22T04:45:25.127Z,56.11
2022-09-22T04:47:53.899Z,56.53
2022-09-22T04:50:23.982Z,56.55
2022-09-22T04:52:53.880Z,56.42
2022-09-22T04:55:24.005Z,56.44
2022-09-22T04:57:53.984Z,56.78
2022-09-22T05:00:22.444Z,56.70
2022-09-22T05:02:50.212Z,55.94
2022-09-22T05:05:17.457Z,56.65
2022-09-22T05:07:56.447Z,56.62
2022-09-22T05:10:25.388Z,56.85
2022-09-22T05:12:55.536Z,56.85
2022-09-22T05:15:25.304Z,57.00
2022-09-22T05:17:55.750Z,56.60
2022-09-22T05:20:22.725Z,56.80
2022-09-22T05:22:50.398Z,56.62
2022-09-22T05:25:18.946Z,56.46
2022-09-22T05:27:51.702Z,56.28
2022-09-22T05:30:21.541Z,56.30
2022-09-22T05:32:52.557Z,56.76
2022-09-22T05:35:24.002Z,56.79
2022-09-22T05:37:57.482Z,57.09
2022-09-22T05:40:29.115Z,57.32
2022-09-22T05:42:55.895Z,57.13
2022-09-22T05:45:22.602Z,57.17
2022-09-22T05:47:50.768Z,57.40
2022-09-22T05:50:21.839Z,57.38
2022-09-22T05:52:52.971Z,57.49
2022-09-22T05:55:20.505Z,57.33
2022-09-22T05:57:47.448Z,57.13
2022-09-22T06:00:18.118Z,56.61
2022-09-22T06:02:48.039Z,55.24
2022-09-22T06:05:19.244Z,53.62
2022-09-22T06:07:55.288Z,52.18
2022-09-22T06:10:22.778Z,51.70
2022-09-22T06:12:54.292Z,50.70
2022-09-22T06:15:20.963Z,49.32
2022-09-22T06:17:52.468Z,48.28
2022-09-22T06:20:19.117Z,48.06
2022-09-22T06:22:45.866Z,46.75
2022-09-22T06:25:13.834Z,45.51
2022-09-22T06:27:41.956Z,45.10
2022-09-22T06:30:12.250Z,43.32
2022-09-22T06:32:39.523Z,42.29
2022-09-22T06:35:07.449Z,40.89
2022-09-22T06:37:35.819Z,39.63
2022-09-22T06:40:02.571Z,38.75
2022-09-22T06:42:30.033Z,37.75
2022-09-22T06:44:57.559Z,35.95
2022-09-22T06:47:25.183Z,34.18
2022-09-22T06:49:54.844Z,33.19
2022-09-22T06:52:27.626Z,32.32
2022-09-22T06:54:56.245Z,31.06
2022-09-22T06:57:22.940Z,30.64
2022-09-22T06:59:51.272Z,30.32
2022-09-22T07:02:18.575Z,29.94
2022-09-22T07:04:46.626Z,29.46
2022-09-22T07:07:13.297Z,29.50
2022-09-22T07:09:39.960Z,28.67
2022-09-22T07:12:08.097Z,28.07
2022-09-22T07:14:35.689Z,27.51
2022-09-22T07:17:02.486Z,27.32
2022-09-22T07:19:36.512Z,26.55
2022-09-22T07:22:03.559Z,25.65
2022-09-22T07:24:35.846Z,25.18
2022-09-22T07:27:04.990Z,24.97
2022-09-22T07:29:32.140Z,25.43
2022-09-22T07:32:00.220Z,24.97
2022-09-22T07:34:27.119Z,24.23
2022-09-22T07:36:54.993Z,23.59
2022-09-22T07:39:21.824Z,24.20
2022-09-22T07:41:48.506Z,23.38
2022-09-22T07:44:40.896Z,22.52
2022-09-22T07:47:10.335Z,22.64
2022-09-22T07:49:37.808Z,22.31
2022-09-22T07:52:09.546Z,22.03
2022-09-22T07:54:37.232Z,22.09
2022-09-22T07:57:11.020Z,21.87
2022-09-22T07:59:41.216Z,21.49
2022-09-22T08:02:09.092Z,21.33
2022-09-22T08:04:35.981Z,21.11
2022-09-22T08:07:05.964Z,20.80
2022-09-22T08:09:33.739Z,21.09
2022-09-22T08:12:02.719Z,20.29
2022-09-22T08:14:30.317Z,20.47
2022-09-22T08:16:57.286Z,20.40
2022-09-22T08:19:24.109Z,20.56
2022-09-22T08:21:54.625Z,20.91
2022-09-22T08:24:22.869Z,20.54
2022-09-22T08:26:53.353Z,20.48
2022-09-22T08:29:21.872Z,20.42
2022-09-22T08:31:49.637Z,21.17
2022-09-22T08:34:17.924Z,20.39
2022-09-22T08:36:49.183Z,19.94
2022-09-22T08:39:20.750Z,19.77
2022-09-22T08:42:09.184Z,19.35
2022-09-22T08:44:52.210Z,19.82
2022-09-22T08:47:45.263Z,19.29
2022-09-22T08:50:44.264Z,18.87
2022-09-22T08:53:16.338Z,19.52
2022-09-22T08:55:49.286Z,18.57
2022-09-22T08:58:37.332Z,18.19
2022-09-22T09:01:25.238Z,17.88
2022-09-22T09:04:38.993Z,18.93
2022-09-22T09:07:14.572Z,18.68
2022-09-22T09:10:15.454Z,18.27
2022-09-22T09:12:42.347Z,18.13
2022-09-22T09:15:26.517Z,17.69
2022-09-22T09:17:58.962Z,17.34
2022-09-22T09:20:42.138Z,16.90
2022-09-22T09:23:18.115Z,16.03
2022-09-22T09:25:56.001Z,16.82
2022-09-22T09:28:44.420Z,15.25
2022-09-22T09:31:31.614Z,16.67
2022-09-22T09:34:05.770Z,17.52
2022-09-22T09:36:37.863Z,17.90
2022-09-22T09:39:17.656Z,18.15
2022-09-22T09:41:49.189Z,17.42
2022-09-22T09:44:39.927Z,16.99
2022-09-22T09:47:28.275Z,16.12
2022-09-22T09:49:57.904Z,16.62
2022-09-22T09:52:29.371Z,16.80
2022-09-22T09:54:56.314Z,16.03
2022-09-22T09:57:27.545Z,15.98
2022-09-22T10:00:31.903Z,16.21
2022-09-22T10:03:23.867Z,15.46
2022-09-22T10:06:10.970Z,15.97
2022-09-22T10:08:49.302Z,15.28
2022-09-22T10:11:16.305Z,15.28
2022-09-22T10:13:45.113Z,15.19
2022-09-22T10:16:33.374Z,14.27
2022-09-22T10:19:17.398Z,14.46
2022-09-22T10:21:44.080Z,14.34
2022-09-22T10:24:31.513Z,14.93
2022-09-22T10:27:00.400Z,15.70
2022-09-22T10:29:32.854Z,15.67
2022-09-22T10:32:05.228Z,16.19
2022-09-22T10:34:43.630Z,15.21
2022-09-22T10:37:15.411Z,15.00
2022-09-22T10:39:54.463Z,14.48
2022-09-22T10:42:36.566Z,15.03
2022-09-22T10:45:10.346Z,14.60
2022-09-22T10:48:10.597Z,14.40
2022-09-22T10:50:47.503Z,14.03
2022-09-22T10:53:18.528Z,13.63
2022-09-22T10:55:52.895Z,13.77
2022-09-22T10:58:27.999Z,13.04
2022-09-22T11:01:13.259Z,12.62
2022-09-22T11:04:14.970Z,12.19
2022-09-22T11:07:21.406Z,12.40
2022-09-22T11:10:21.943Z,12.83
2022-09-22T11:13:10.739Z,12.94
2022-09-22T11:15:56.432Z,13.33
2022-09-22T11:18:39.851Z,12.86
2022-09-22T11:21:18.319Z,12.89
2022-09-22T11:24:12.713Z,13.30
2022-09-22T11:26:59.770Z,12.32
2022-09-22T11:29:57.542Z,12.69
2022-09-22T11:32:37.422Z,12.85
2022-09-22T11:35:24.531Z,13.01
2022-09-22T11:38:13.139Z,13.98
2022-09-22T11:40:51.938Z,13.64
2022-09-22T11:43:46.513Z,12.88
2022-09-22T11:46:40.631Z,12.63
2022-09-22T11:49:24.947Z,13.99
2022-09-22T11:52:25.228Z,13.76
2022-09-22T11:55:02.345Z,13.95
2022-09-22T11:57:34.642Z,14.47
2022-09-22T12:00:19.620Z,13.61
2022-09-22T12:03:01.904Z,13.73
2022-09-22T12:05:32.260Z,14.16
2022-09-22T12:08:07.470Z,14.72
2022-09-22T12:10:42.251Z,15.24
2022-09-22T12:13:23.019Z,16.48
2022-09-22T12:16:13.708Z,17.21
2022-09-22T12:19:00.711Z,18.50
2022-09-22T12:21:36.145Z,19.12
2022-09-22T12:24:09.708Z,18.56
2022-09-22T12:26:39.705Z,19.29
2022-09-22T12:29:16.182Z,19.51
2022-09-22T12:31:47.289Z,19.02
2022-09-22T12:34:31.342Z,19.31
2022-09-22T12:37:21.488Z,19.67
2022-09-22T12:39:51.130Z,19.84
2022-09-22T12:42:37.716Z,20.58
2022-09-22T12:45:20.141Z,20.10
2022-09-22T12:47:53.291Z,20.36
2022-09-22T12:50:23.462Z,20.19
2022-09-22T12:52:51.243Z,21.10
2022-09-22T12:55:30.307Z,21.95
2022-09-22T12:58:02.402Z,22.70
2022-09-22T13:00:41.117Z,22.18
2022-09-22T13:03:26.418Z,22.82
2022-09-22T13:06:00.866Z,23.04
2022-09-22T13:08:31.048Z,23.34
2022-09-22T13:11:05.603Z,22.85
2022-09-22T13:13:36.773Z,22.96
2022-09-22T13:16:24.326Z,24.23
2022-09-22T13:18:52.073Z,24.60
2022-09-22T13:21:22.123Z,24.13
2022-09-22T13:24:02.681Z,23.89
2022-09-22T13:26:41.019Z,24.58
2022-09-22T13:29:21.052Z,23.49
2022-09-22T13:31:48.306Z,23.06
2022-09-22T13:34:35.721Z,24.20
2022-09-22T13:37:10.782Z,24.29
2022-09-22T13:39:46.887Z,23.85
2022-09-22T13:42:24.891Z,23.26
2022-09-22T13:45:24.184Z,23.97
2022-09-22T13:48:02.673Z,23.12
2022-09-22T13:50:48.372Z,24.10
2022-09-22T13:53:19.658Z,24.21
2022-09-22T13:55:51.678Z,23.85
2022-09-22T13:58:29.550Z,24.51
2022-09-22T14:01:13.066Z,23.80
2022-09-22T14:03:44.851Z,25.20
2022-09-22T14:06:33.556Z,24.64
2022-09-22T14:09:03.449Z,23.68
2022-09-22T14:11:32.247Z,23.38
2022-09-22T14:14:02.684Z,24.13
2022-09-22T14:16:32.371Z,24.16
2022-09-22T14:19:16.540Z,25.44
2022-09-22T14:21:55.972Z,25.21
2022-09-22T14:24:23.325Z,25.64
2022-09-22T14:26:54.801Z,24.60
2022-09-22T14:29:31.149Z,24.62
2022-09-22T14:32:11.818Z,25.04
2022-09-22T14:34:40.613Z,24.87
2022-09-22T14:37:34.348Z,25.81
2022-09-22T14:40:04.711Z,25.56
2022-09-22T14:42:34.335Z,25.66
2022-09-22T14:45:10.519Z,25.07
2022-09-22T14:47:42.372Z,24.86
2022-09-22T14:50:21.196Z,25.43
2022-09-22T14:52:58.336Z,25.61
2022-09-22T14:55:39.897Z,25.27
2022-09-22T14:58:14.933Z,25.23
2022-09-22T15:01:15.945Z,25.06
2022-09-22T15:03:56.365Z,25.52
2022-09-22T15:06:23.408Z,26.13
2022-09-22T15:08:53.213Z,26.67
2022-09-22T15:11:20.070Z,25.47
2022-09-22T15:13:51.289Z,25.74
2022-09-22T15:16:33.708Z,26.46
2022-09-22T15:19:06.022Z,26.08
2022-09-22T15:21:37.166Z,26.43
2022-09-22T15:24:07.529Z,26.59
2022-09-22T15:26:35.194Z,27.17
2022-09-22T15:29:04.818Z,27.53
2022-09-22T15:31:32.340Z,27.79
2022-09-22T15:34:03.058Z,28.48
2022-09-22T15:36:33.882Z,28.69
2022-09-22T15:39:21.906Z,28.73
2022-09-22T15:41:50.882Z,28.56
2022-09-22T15:44:17.785Z,28.14
2022-09-22T15:46:48.481Z,28.57
2022-09-22T15:49:20.988Z,28.45
2022-09-22T15:51:51.600Z,27.86
2022-09-22T15:54:21.764Z,28.04
2022-09-22T15:56:52.441Z,27.83
2022-09-22T15:59:23.896Z,27.84
2022-09-22T16:01:51.946Z,28.20
2022-09-22T16:04:20.060Z,28.50
2022-09-22T16:06:55.114Z,28.34
2022-09-22T16:09:22.081Z,28.62
2022-09-22T16:11:51.360Z,29.03
2022-09-22T16:14:18.620Z,29.05
2022-09-22T16:16:45.550Z,29.23
2022-09-22T16:19:13.882Z,29.88
2022-09-22T16:21:49.163Z,29.90
2022-09-22T16:24:16.173Z,30.54
2022-09-22T16:26:45.361Z,29.92
2022-09-22T16:29:12.071Z,30.17
2022-09-22T16:31:39.150Z,30.15
2022-09-22T16:34:09.668Z,30.02
2022-09-22T16:36:39.839Z,30.53
2022-09-22T16:39:06.558Z,30.60
2022-09-22T16:41:38.812Z,30.72
2022-09-22T16:44:06.304Z,30.92
2022-09-22T16:46:39.057Z,31.33
2022-09-22T16:49:12.867Z,31.48
2022-09-22T16:51:48.735Z,32.10
2022-09-22T16:54:16.566Z,32.19
2022-09-22T16:56:46.257Z,32.57
2022-09-22T16:59:18.350Z,32.13
2022-09-22T17:01:48.403Z,32.74
2022-09-22T17:04:19.027Z,32.74
2022-09-22T17:06:46.910Z,32.61
2022-09-22T17:09:16.745Z,32.74
2022-09-22T17:11:45.626Z,33.58
2022-09-22T17:14:15.407Z,34.25
2022-09-22T17:16:48.012Z,34.29
2022-09-22T17:19:20.712Z,34.23
2022-09-22T17:21:50.678Z,34.45
2022-09-22T17:24:19.241Z,34.78
2022-09-22T17:26:50.827Z,34.88
2022-09-22T17:29:24.809Z,35.93
2022-09-22T17:31:58.344Z,36.07
2022-09-22T17:34:28.361Z,37.12
2022-09-22T17:36:57.140Z,37.80
2022-09-22T17:39:28.691Z,36.03
2022-09-22T17:41:55.694Z,37.04
2022-09-22T17:44:24.044Z,38.06
2022-09-22T17:47:10.912Z,37.47
2022-09-22T17:49:59.428Z,36.85
2022-09-22T17:52:29.120Z,37.78
2022-09-22T17:55:11.635Z,38.17
2022-09-22T17:57:43.274Z,37.54
2022-09-22T18:00:15.305Z,38.73
2022-09-22T18:02:45.078Z,38.05
2022-09-22T18:05:14.728Z,38.01
2022-09-22T18:07:42.012Z,38.69
2022-09-22T18:10:12.107Z,38.63
2022-09-22T18:12:39.463Z,37.59
2022-09-22T18:15:07.327Z,37.49
2022-09-22T18:17:42.726Z,38.27
2022-09-22T18:20:15.073Z,39.24
2022-09-22T18:22:48.570Z,38.89
2022-09-22T18:25:28.857Z,39.02
2022-09-22T18:28:00.853Z,39.02
2022-09-22T18:30:32.191Z,39.35
2022-09-22T18:33:00.460Z,39.56
2022-09-22T18:35:28.830Z,39.34
2022-09-22T18:37:57.200Z,39.47
2022-09-22T18:40:25.083Z,39.23
2022-09-22T18:42:57.460Z,39.62
2022-09-22T18:45:25.704Z,39.59
2022-09-22T18:47:54.745Z,39.45
2022-09-22T18:50:36.195Z,40.10
2022-09-22T18:53:13.758Z,40.20
2022-09-22T18:55:42.307Z,40.33
2022-09-22T18:58:09.874Z,39.92
2022-09-22T19:00:41.961Z,40.50
2022-09-22T19:03:08.703Z,40.42
2022-09-22T19:05:38.898Z,40.43
2022-09-22T19:08:11.952Z,40.77
2022-09-22T19:10:39.516Z,40.57
2022-09-22T19:13:18.308Z,40.72
2022-09-22T19:15:57.358Z,40.65
2022-09-22T19:18:27.688Z,40.99
2022-09-22T19:21:04.475Z,40.64
2022-09-22T19:23:32.433Z,40.81
2022-09-22T19:26:01.209Z,40.91
2022-09-22T19:28:31.473Z,41.29
2022-09-22T19:30:58.350Z,41.23
2022-09-22T19:33:25.639Z,41.32
2022-09-22T19:35:53.090Z,41.56
2022-09-22T19:38:20.425Z,41.92
2022-09-22T19:40:56.655Z,42.10
2022-09-22T19:43:24.521Z,42.09
2022-09-22T19:45:55.066Z,42.15
2022-09-22T19:48:25.862Z,42.59
2022-09-22T19:50:54.721Z,42.10
2022-09-22T19:53:24.105Z,42.87
2022-09-22T19:55:51.830Z,42.66
2022-09-22T19:58:23.462Z,42.65
2022-09-22T20:00:58.767Z,42.83
2022-09-22T20:03:27.644Z,42.93
2022-09-22T20:05:56.010Z,43.30
2022-09-22T20:08:25.922Z,43.25
2022-09-22T20:11:22.760Z,43.10
2022-09-22T20:14:05.071Z,43.31
2022-09-22T20:16:35.019Z,43.85
2022-09-22T20:19:17.500Z,44.18
2022-09-22T20:21:54.159Z,43.86
2022-09-22T20:24:23.342Z,44.51
2022-09-22T20:26:50.992Z,44.83
2022-09-22T20:29:26.342Z,44.95
2022-09-22T20:31:54.631Z,45.06
2022-09-22T20:34:25.230Z,45.18
2022-09-22T20:36:53.713Z,45.13
2022-09-22T20:39:22.269Z,45.03
2022-09-22T20:41:48.908Z,45.23
2022-09-22T20:44:16.921Z,45.59
2022-09-22T20:46:48.458Z,46.06
2022-09-22T20:49:24.899Z,45.85
2022-09-22T20:51:52.578Z,45.70
2022-09-22T20:54:24.295Z,45.46
2022-09-22T20:56:51.005Z,45.94
2022-09-22T20:59:24.708Z,45.78
2022-09-22T21:02:00.539Z,46.07
2022-09-22T21:04:30.924Z,45.96
2022-09-22T21:07:00.375Z,45.94
2022-09-22T21:09:50.042Z,47.66
2022-09-22T21:12:28.592Z,47.30
2022-09-22T21:15:03.464Z,47.57
2022-09-22T21:17:35.879Z,47.52
2022-09-22T21:20:03.419Z,47.64
2022-09-22T21:22:31.001Z,47.57
2022-09-22T21:24:59.397Z,48.07
2022-09-22T21:27:26.358Z,48.25
2022-09-22T21:29:54.533Z,48.12
2022-09-22T21:32:25.064Z,47.87
2022-09-22T21:35:00.181Z,47.84
2022-09-22T21:37:28.568Z,47.89
2022-09-22T21:39:57.841Z,48.02
2022-09-22T21:42:31.290Z,48.00
2022-09-22T21:45:01.098Z,48.07
2022-09-22T21:47:29.523Z,48.41
2022-09-22T21:49:56.213Z,48.51
2022-09-22T21:52:25.499Z,48.73
2022-09-22T21:54:54.119Z,48.80
2022-09-22T21:57:30.612Z,49.00
2022-09-22T21:59:59.817Z,49.02
2022-09-22T22:02:26.733Z,49.25
2022-09-22T22:04:56.072Z,49.39
2022-09-22T22:07:25.373Z,49.44
2022-09-22T22:09:54.420Z,49.45
2022-09-22T22:12:26.235Z,50.40
2022-09-22T22:14:58.803Z,51.00
2022-09-22T22:17:28.426Z,50.91
2022-09-22T22:19:58.758Z,51.00
2022-09-22T22:22:34.295Z,51.00
2022-09-22T22:25:05.948Z,50.87
2022-09-22T22:27:34.467Z,51.04
2022-09-22T22:30:03.877Z,50.69
2022-09-22T22:32:41.824Z,51.17
2022-09-22T22:35:12.842Z,51.12
2022-09-22T22:37:41.059Z,51.24
2022-09-22T22:40:11.583Z,50.99
2022-09-22T22:42:50.810Z,51.32
2022-09-22T22:45:21.824Z,51.53
2022-09-22T22:47:52.577Z,51.60
2022-09-22T22:50:19.223Z,51.42
2022-09-22T22:52:46.059Z,51.23
2022-09-22T22:55:16.984Z,51.04
2022-09-22T22:57:50.995Z,51.00
2022-09-22T23:00:30.742Z,51.00
2022-09-22T23:02:57.614Z,51.13
2022-09-22T23:05:29.647Z,50.94
2022-09-22T23:07:58.705Z,51.04
2022-09-22T23:10:26.885Z,51.37
2022-09-22T23:13:04.857Z,51.24
2022-09-22T23:15:31.588Z,51.39
2022-09-22T23:18:00.878Z,51.40
2022-09-22T23:20:30.229Z,51.13
2022-09-22T23:22:57.543Z,50.92
2022-09-22T23:25:25.794Z,51.36
2022-09-22T23:27:58.398Z,51.37
2022-09-22T23:30:28.740Z,51.29
2022-09-22T23:32:57.451Z,51.27
2022-09-22T23:35:24.544Z,51.41
2022-09-22T23:37:55.540Z,51.65
2022-09-22T23:40:23.577Z,51.89
2022-09-22T23:42:50.303Z,52.05
2022-09-22T23:45:19.075Z,51.98
2022-09-22T23:47:47.438Z,52.28
2022-09-22T23:50:15.000Z,52.03
2022-09-22T23:52:41.647Z,52.45
2022-09-22T23:55:10.903Z,51.76
2022-09-22T23:57:39.406Z,51.61
